Pahranagat National Wildlife Refuge, Nevada Weather observations

Data are for 10 minute period ending at time listed.
 Day   Time   Solar   Ave.   Ave.  Ave.  Vector  Max.   Baro.   Total    
  of    of     Rad.   Air    Rel.  Wind   Wind   Wind  Press.  Precip.   
Year   Day            Temp.  Hum.  Speed  Dir.   Gust                    
2014   (PST)  Kw/m2    F      %     mph   deg.    mph    mb.     in.     
-------------------------------------------------------------------------
 234    4:50   0.00   55.4    89    1.9    52     3.6   903.2    0.00 
 234    5:00   0.00   52.4    83    2.0   301     3.0   903.2    0.00 
 234    5:10   0.01   50.0    88    2.3   341     3.7   903.2    0.00 
 234    5:20   0.01   51.5    91    2.2    22     2.8   903.3    0.00 
 234    5:30   0.01   51.5    90    2.0   302     3.0   903.4    0.00 
 234    5:40   0.05   51.5    91    1.1   289     2.8   903.5    0.00 
 234    5:50   0.07   53.7    90    0.2   292     1.2   903.5    0.00 
 234    6:00   0.10   56.7    87    0.1   326     0.9   903.6    0.00 
 234    6:10   0.12   59.6    81    0.4    56     1.0   903.6    0.00 
 234    6:20   0.15   63.2    78    0.0     0     0.0   903.7    0.00 
 234    6:30   0.18   67.0    72    0.3   160     1.5   903.7    0.00 
 234    6:40   0.21   68.9    69    0.7   180     1.7   903.7    0.00 
 234    6:50   0.24   69.4    64    1.0   282     2.3   903.7    0.00 
 234    7:00   0.27   70.1    60    0.9   268     1.9   903.7    0.00 
 234    7:10   0.30   72.5    52    0.3   238     1.3   903.6    0.00 
 234    7:20   0.33   74.0    48    1.0   205     2.3   903.5    0.00 
 234    7:30   0.36   74.2    47    1.4   209     2.6   903.4    0.00 
 234    7:40   0.39   74.7    46    2.2   192     4.8   903.3    0.00 
 234    7:50   0.42   75.3    44    2.4   179     6.3   903.1    0.00 
 234    8:00   0.45   76.0    43    5.7   152    12.4   903.0    0.00 
 234    8:10   0.48   76.0    43    8.6   145    14.5   902.9    0.00 
 234    8:20   0.51   75.9    42   10.0   144    15.9   902.8    0.00 
 234    8:30   0.53   76.3    42    9.5   141    14.6   902.8    0.00 
 234    8:40   0.56   76.7    42    9.8   144    14.9   902.7    0.00 
 234    8:50   0.58   77.0    41   10.3   145    16.4   902.7    0.00 
 234    9:00   0.61   77.7    41   10.4   143    14.9   902.6    0.00 
 234    9:10   0.63   77.8    41   11.2   138    20.0   902.4    0.00 
 234    9:20   0.65   78.1    40   11.9   138    20.2   902.3    0.00 
 234    9:30   0.68   78.5    40   11.1   149    17.6   902.2    0.00 
 234    9:40   0.69   78.8    39   13.1   142    19.2   902.1    0.00 
 234    9:50   0.71   79.0    40   12.0   146    18.3   902.0    0.00 
 234   10:00   0.73   79.6    39   12.8   148    22.4   902.0    0.00 
 234   10:10   0.75   79.6    38   13.2   142    20.1   901.9    0.00 
 234   10:20   0.76   79.8    38   12.5   154    19.8   901.8    0.00 
 234   10:30   0.78   80.3    37   12.7   161    19.6   901.7    0.00 
 234   10:40   0.79   80.7    36   12.2   158    20.5   901.6    0.00 
 234   10:50   0.80   81.7    36   12.2   154    19.8   901.4    0.00 
 234   11:00   0.81   81.1    36   14.1   146    20.6   901.3    0.00 
 234   11:10   0.81   81.3    36   14.5   149    23.2   901.2    0.00 
 234   11:20   0.82   81.7    36   14.1   146    22.1   901.1    0.00 
 234   11:30   0.82   81.5    35   14.8   148    21.0   901.0    0.00 
 234   11:40   0.83   81.6    34   15.7   141    24.1   900.9    0.00 
 234   11:50   0.83   81.9    35   14.5   140    22.1   900.9    0.00 
 234   12:00   0.83   82.2    35   15.2   135    25.9   900.7    0.00 
 234   12:10   0.83   82.5    36   13.9   144    22.1   900.6    0.00 
 234   12:20   0.82   82.9    36   14.6   145    23.5   900.5    0.00 
 234   12:30   0.82   82.9    36   14.4   136    21.9   900.4    0.00 
 234   12:40   0.81   82.9    36   14.9   143    24.0   900.3    0.00 
 234   12:50   0.81   83.2    36   13.9   142    21.7   900.1    0.00 
 234   13:00   0.80   83.4    35   14.7   145    23.8   899.9    0.00 
 234   13:10   0.79   83.4    35   14.3   146    21.5   899.8    0.00 
 234   13:20   0.78   83.9    35   14.8   145    22.3   899.6    0.00 
 234   13:30   0.76   83.8    34   16.1   142    23.1   899.4    0.00 
 234   13:40   0.75   84.0    34   15.8   135    25.1   899.3    0.00 
 234   13:50   0.73   84.0    34   15.9   142    23.7   899.1    0.00 
 234   14:00   0.69   84.3    33   14.3   145    22.7   899.1    0.00 
 234   14:10   0.71   84.5    33   14.8   143    22.9   898.9    0.00 
 234   14:20   0.60   84.0    33   16.1   149    22.4   898.6    0.00 
 234   14:30   0.47   83.8    32   15.2   148    23.4   898.5    0.00 
 234   14:40   0.58   83.6    32   16.2   153    24.0   898.4    0.00 
 234   14:50   0.62   84.6    31   15.8   143    27.2   898.3    0.00 
 234   15:00   0.40   84.2    31   15.9   143    23.8   898.2    0.00 
 234   15:10   0.28   82.2    32   14.8   145    20.0   898.2    0.00 
 234   15:20   0.51   84.2    30   14.9   140    24.8   897.9    0.00 
 234   15:30   0.42   84.3    29   16.1   147    25.2   897.7    0.00 
 234   15:40   0.48   84.6    29   15.6   145    25.9   897.6    0.00 
 234   15:50   0.28   83.8    29   15.8   142    23.5   897.5    0.00 
 234   16:00   0.34   84.6    29   15.4   142    22.9   897.4    0.00 
 234   16:10   0.24   83.4    30   16.6   149    24.9   897.4    0.00 
 234   16:20   0.15   83.0    30   13.9   148    22.4   897.4    0.00 
 234   16:30   0.16   82.7    31   14.8   142    21.2   897.4    0.00 
 234   16:40   0.12   82.8    31   12.3   145    18.0   897.4    0.00 
 234   16:50   0.12   82.2    31   12.8   147    22.6   897.3    0.00 
 234   17:00   0.24   83.0    31   11.9   148    19.0   897.3    0.00 
 234   17:10   0.16   83.2    31   13.4   152    20.7   897.1    0.00 
 234   17:20   0.20   83.4    31   14.2   151    21.3   897.0    0.00 
 234   17:30   0.15   83.0    32   13.5   147    19.1   897.0    0.00 
 234   17:40   0.12   82.5    32   12.9   143    22.1   897.0    0.00 
 234   17:50   0.08   81.9    33   13.5   145    23.9   896.9    0.00 
 234   18:00   0.05   81.5    33   13.7   142    20.3   896.8    0.00 
 234   18:10   0.02   80.9    34   12.4   146    21.0   896.8    0.00 
 234   18:20   0.01   80.1    35   12.6   148    20.5   896.7    0.00 
 234   18:30   0.00   80.3    34   13.3   150    21.7   896.7    0.00 
 234   18:40   0.00   80.0    35   12.9   151    21.0   896.8    0.00 
 234   18:50   0.00   80.0    34   13.8   146    21.7   896.8    0.00 
 234   19:00   0.00   79.4    35   12.4   151    20.6   896.9    0.00 
 234   19:10   0.00   79.3    35   13.6   153    18.6   896.8    0.00 
 234   19:20   0.00   79.0    35   12.2   154    19.6   896.9    0.00 
 234   19:30   0.00   78.7    35   11.9   146    18.6   897.2    0.00 
 234   19:40   0.00   78.5    36   11.3   141    17.1   897.3    0.00 
 234   19:50   0.00   77.9    36   11.3   143    18.3   897.4    0.00 
 234   20:00   0.00   78.2    36   12.6   146    19.4   897.5    0.00 
 234   20:10   0.00   78.4    36   13.2   147    20.1   897.6    0.00 
 234   20:20   0.00   78.0    36   13.2   147    20.2   897.7    0.00 
 234   20:30   0.00   78.1    35   13.3   149    19.7   897.7    0.00 
 234   20:40   0.00   77.4    37   10.9   142    16.5   897.7    0.00 
 234   20:50   0.00   76.7    38   10.8   139    17.5   897.8    0.00 
 234   21:00   0.00   76.6    38   11.9   142    18.9   897.8    0.00 
 234   21:10   0.00   76.5    38   12.7   150    19.5   897.8    0.00 
 234   21:20   0.00   76.5    38   12.4   152    19.1   897.9    0.00 
 234   21:30   0.00   76.4    38   11.6   146    18.6   898.0    0.00 
 234   21:40   0.00   76.3    38   11.7   142    18.0   898.1    0.00 
 234   21:50   0.00   76.0    39   11.5   149    17.5   898.1    0.00 
 234   22:00   0.00   76.2    39   11.5   156    17.0   898.2    0.00 
 234   22:10   0.00   76.3    39   10.1   160    19.1   898.3    0.00 
 234   22:20   0.00   76.3    39   11.0   153    19.0   898.4    0.00 
 234   22:30   0.00   76.5    39   11.1   150    17.8   898.4    0.00 
 234   22:40   0.00   76.1    40   10.4   149    16.1   898.5    0.00 
 234   22:50   0.00   75.7    41    9.7   149    15.9   898.5    0.00 
 234   23:00   0.00   75.4    41    9.7   153    15.3   898.5    0.00 
 234   23:10   0.00   75.1    42    8.4   155    12.6   898.5    0.00 
 234   23:20   0.00   74.8    42    7.7   162    14.7   898.5    0.00 
 234   23:30   0.00   74.7    42    7.3   158    12.9   898.6    0.00 
 234   23:40   0.00   74.2    44    5.6   161     9.8   898.7    0.00 
 234   23:50   0.00   73.5    45    5.9   160     9.3   898.8    0.00 
 235    0:00   0.00   72.9    46    5.0   152     7.9   898.8    0.00 
 235    0:10   0.00   71.4    49    4.9   150     7.2   898.9    0.00 
 235    0:20   0.00   70.9    50    4.6   144     7.4   898.9    0.00 
 235    0:30   0.00   71.4    48    5.5   150     9.8   898.9    0.00 
 235    0:40   0.00   71.1    49    4.4   146     6.6   899.0    0.00 
 235    0:50   0.00   69.7    52    3.8   136     5.9   899.1    0.00 
 235    1:00   0.00   69.0    53    4.6   140     5.8   899.2    0.00 
 235    1:10   0.00   69.2    53    4.4   133     6.9   899.2    0.00 
 235    1:20   0.00   68.2    54    3.6    19     6.4   899.4    0.00 
 235    1:30   0.00   67.0    58    3.9    22     6.9   899.5    0.00 
 235    1:40   0.00   67.3    57    2.4    14     4.6   899.6    0.00 
 235    1:50   0.00   67.4    56    1.7     5     3.1   899.6    0.00 
 235    2:00   0.00   67.7    56    3.1    63     4.7   899.6    0.00 
 235    2:10   0.00   66.4    59    0.3   208     2.0   899.5    0.00 
 235    2:20   0.00   65.0    62    0.4   280     1.8   899.5    0.00 
 235    2:30   0.00   66.9    58    2.9    43     3.9   899.5    0.00 
 235    2:40   0.00   66.9    58    1.4    56     4.0   899.5    0.00 
 235    2:50   0.00   64.9    61    0.5   163     1.8   899.5    0.00 
 235    3:00   0.00   63.4    64    1.3   177     2.3   899.5    0.00 
 235    3:10   0.00   60.1    70    2.1   297     4.6   899.6    0.00 
 235    3:20   0.00   59.3    72    1.6   315     4.5   899.7    0.00 
 235    3:30   0.00   58.0    75    2.2   335     3.2   899.8    0.00 
 235    3:40   0.00   60.1    73    1.8     5     2.9   899.8    0.00 
 235    3:50   0.00   60.1    70    1.5   269     3.8   899.8    0.00 
 235    4:00   0.00   58.6    74    2.2   156     4.1   899.8    0.00 
 235    4:10   0.00   60.0    74    2.3    90     4.2   899.9    0.00 
 235    4:20   0.00   62.8    65    1.8   322     3.5   900.0    0.00 
 235    4:30   0.00   60.2    70    1.8   302     4.1   900.1    0.00 
 235    4:40   0.00   59.4    72    3.8     2     5.4   900.1    0.00 

Return to Pahranagat N. Wildlife Refuge graphs page.


Western Regional Climate Center,wrcc@dri.edu